Time;durP1;ratioP1;P1;durP2;ratioP2;P2;SDS_P1;SDS_P2;PMS_P1;PMS_P2;Temp;Humidity;BMP_temperature;BMP_pressure;BME280_temperature;BME280_humidity;BME280_pressure;Samples;Min_cycle;Max_cycle;Signal;HPM_P1;HPM_P2
2023/03/10 00:02:45;;;;;;;0.00;0.00;;;;;;;2.39;100.00;98065.59;10549988;28;20039;-81
2023/03/10 00:07:47;;;;;;;0.00;0.00;;;;;;;2.39;100.00;98060.50;10542194;28;20732;-79
2023/03/10 00:12:48;;;;;;;0.00;0.00;;;;;;;2.28;100.00;98057.81;10542008;28;20072;-80
2023/03/10 00:17:51;;;;;;;0.30;0.30;;;;;;;2.37;100.00;98052.88;10513561;28;20101;-78
2023/03/10 00:22:52;;;;;;;0.08;0.08;;;;;;;2.25;100.00;98057.78;10534942;28;20483;-79
2023/03/10 00:27:54;;;;;;;0.17;0.17;;;;;;;2.26;100.00;98043.41;10516189;28;20483;-79
2023/03/10 00:32:56;;;;;;;0.00;0.00;;;;;;;2.37;100.00;98031.66;10517268;28;20063;-77
2023/03/10 00:37:57;;;;;;;0.00;0.00;;;;;;;2.43;100.00;98020.72;10519432;28;20083;-78
2023/03/10 00:42:59;;;;;;;0.45;0.40;;;;;;;3.12;100.00;97993.47;10513327;28;20060;-79
2023/03/10 00:48:01;;;;;;;0.10;0.10;;;;;;;2.90;100.00;98006.84;10517785;28;20051;-78
2023/03/10 00:53:05;;;;;;;0.10;0.10;;;;;;;2.89;100.00;98015.28;10536532;28;20074;-80
2023/03/10 00:58:07;;;;;;;0.00;0.00;;;;;;;2.90;100.00;98033.13;10537085;28;20067;-79
2023/03/10 01:03:09;;;;;;;0.32;0.15;;;;;;;2.70;100.00;98060.88;10533492;28;20075;-80
2023/03/10 01:08:10;;;;;;;0.10;0.10;;;;;;;2.30;100.00;98065.44;10504328;28;20055;-79
2023/03/10 01:13:13;;;;;;;0.00;0.00;;;;;;;3.15;100.00;98041.00;10508508;28;20098;-79
2023/03/10 01:18:17;;;;;;;0.00;0.00;;;;;;;2.65;100.00;98042.16;10506851;28;20047;-79
2023/03/10 01:23:24;;;;;;;0.00;0.00;;;;;;;3.14;100.00;98050.31;10529721;28;20052;-78
2023/03/10 01:28:25;;;;;;;0.22;0.22;;;;;;;3.04;100.00;98042.59;10501930;28;20068;-79
2023/03/10 01:33:27;;;;;;;2.85;1.27;;;;;;;2.72;100.00;98064.28;10526059;28;20048;-79
2023/03/10 01:38:29;;;;;;;0.00;0.00;;;;;;;2.92;100.00;98035.69;10549362;28;20047;-80
2023/03/10 01:43:33;;;;;;;0.17;0.17;;;;;;;2.96;100.00;98042.50;10519733;28;20036;-80
2023/03/10 01:48:36;;;;;;;0.17;0.17;;;;;;;2.80;100.00;98034.69;10541572;28;20044;-80
2023/03/10 01:53:38;;;;;;;0.15;0.15;;;;;;;2.98;100.00;98040.84;10513146;28;20499;-79
2023/03/10 01:58:44;;;;;;;0.20;0.20;;;;;;;3.29;100.00;98046.22;10538950;28;20036;-80
2023/03/10 02:03:51;;;;;;;0.00;0.00;;;;;;;3.17;100.00;98059.69;10509840;28;20051;-80
2023/03/10 02:08:59;;;;;;;0.00;0.00;;;;;;;3.08;100.00;98088.44;10510155;28;20048;-80
2023/03/10 02:14:05;;;;;;;0.00;0.00;;;;;;;2.95;100.00;98082.34;10542980;28;20450;-79
2023/03/10 02:19:15;;;;;;;0.00;0.00;;;;;;;3.00;100.00;98080.69;10520779;28;20060;-79
2023/03/10 02:24:35;;;;;;;0.52;0.52;;;;;;;2.90;100.00;98083.13;10549246;28;20548;-80
2023/03/10 02:29:44;;;;;;;0.00;0.00;;;;;;;2.89;100.00;98096.66;10544697;28;20044;-80
2023/03/10 02:35:01;;;;;;;0.10;0.10;;;;;;;3.14;100.00;98078.31;10524121;28;20090;-80
2023/03/10 02:40:43;;;;;;;0.00;0.00;;;;;;;3.21;100.00;98081.75;10524657;28;20036;-80
2023/03/10 02:45:50;;;;;;;0.00;0.00;;;;;;;3.45;100.00;98083.69;10422103;28;20499;-79
2023/03/10 02:50:53;;;;;;;0.00;0.00;;;;;;;3.06;100.00;98105.34;10548413;28;20033;-79
2023/03/10 02:55:57;;;;;;;0.52;0.25;;;;;;;3.68;100.00;98085.59;10540417;28;20403;-79
2023/03/10 03:01:00;;;;;;;0.00;0.00;;;;;;;2.76;100.00;98121.09;10517942;28;20054;-80
2023/03/10 03:06:02;;;;;;;0.22;0.22;;;;;;;3.28;100.00;98090.31;10533144;28;20044;-79
2023/03/10 03:11:05;;;;;;;0.10;0.10;;;;;;;3.01;100.00;98107.84;10510255;28;20033;-79
2023/03/10 03:16:08;;;;;;;0.00;0.00;;;;;;;2.84;100.00;98105.13;10557252;28;20467;-79
2023/03/10 03:21:20;;;;;;;0.45;0.40;;;;;;;3.06;100.00;98077.38;10507193;28;20064;-80
2023/03/10 03:26:25;;;;;;;0.00;0.00;;;;;;;3.44;100.00;98065.84;10544946;28;20044;-81
2023/03/10 03:31:43;;;;;;;0.00;0.00;;;;;;;3.53;100.00;98086.28;10522674;28;20050;-80
2023/03/10 03:36:51;;;;;;;1.00;0.15;;;;;;;3.31;100.00;98100.53;10511226;28;20040;-79
2023/03/10 03:41:58;;;;;;;0.85;0.63;;;;;;;3.31;100.00;98105.63;10518549;28;20039;-79
2023/03/10 03:47:07;;;;;;;0.65;0.30;;;;;;;3.29;100.00;98110.66;10539522;28;20074;-80
2023/03/10 03:52:10;;;;;;;0.03;0.03;;;;;;;3.16;100.00;98104.59;10529794;28;20090;-80
2023/03/10 03:57:11;;;;;;;0.52;0.52;;;;;;;3.15;100.00;98104.59;10537046;28;20044;-80
2023/03/10 04:02:13;;;;;;;0.28;0.15;;;;;;;2.84;100.00;98110.19;10552161;28;20122;-80
2023/03/10 04:07:16;;;;;;;0.00;0.00;;;;;;;2.62;100.00;98082.81;10554349;28;20101;-80
2023/03/10 04:12:19;;;;;;;0.15;0.10;;;;;;;2.51;100.00;98080.97;10499559;28;20126;-80
2023/03/10 04:17:21;;;;;;;0.75;0.47;;;;;;;2.58;100.00;98060.72;10542088;28;20043;-80
2023/03/10 04:22:24;;;;;;;0.00;0.00;;;;;;;2.63;100.00;98043.84;10529586;28;20051;-80
2023/03/10 04:27:26;;;;;;;0.08;0.08;;;;;;;2.70;100.00;98043.09;10512285;28;20147;-80
2023/03/10 04:32:29;;;;;;;0.00;0.00;;;;;;;2.90;100.00;98034.81;10532452;28;20044;-80
2023/03/10 04:37:31;;;;;;;0.05;0.05;;;;;;;2.70;100.00;98043.09;10521026;28;20437;-80
2023/03/10 04:42:36;;;;;;;0.00;0.00;;;;;;;2.67;100.00;98025.25;10538085;28;20040;-80
2023/03/10 04:47:40;;;;;;;0.00;0.00;;;;;;;2.67;100.00;98015.06;10526905;28;20044;-79
2023/03/10 04:52:44;;;;;;;0.00;0.00;;;;;;;2.68;100.00;98007.44;10537014;28;20499;-78
2023/03/10 04:57:46;;;;;;;0.10;0.10;;;;;;;2.53;100.00;98012.41;10517141;28;20047;-80
2023/03/10 05:02:47;;;;;;;0.80;0.40;;;;;;;2.47;100.00;98018.25;10513319;28;20048;-79
2023/03/10 05:07:49;;;;;;;2.33;0.52;;;;;;;2.42;100.00;98014.78;10493653;28;20048;-79
2023/03/10 05:12:53;;;;;;;0.40;0.40;;;;;;;2.50;100.00;98008.09;10513811;28;20040;-82
2023/03/10 05:17:55;;;;;;;0.00;0.00;;;;;;;2.41;100.00;98002.94;10522773;28;20126;-81
2023/03/10 05:22:57;;;;;;;0.10;0.10;;;;;;;2.28;100.00;97996.84;10533918;28;20043;-81
2023/03/10 05:27:59;;;;;;;0.15;0.15;;;;;;;2.30;100.00;97995.19;10518424;28;20457;-81
2023/03/10 05:33:03;;;;;;;0.00;0.00;;;;;;;2.28;100.00;97990.91;10517641;28;20044;-81
2023/03/10 05:38:05;;;;;;;0.20;0.10;;;;;;;2.32;100.00;97992.66;10517483;28;20048;-82
2023/03/10 05:43:06;;;;;;;0.00;0.00;;;;;;;2.33;100.00;97979.97;10515180;28;20055;-82
2023/03/10 05:48:08;;;;;;;0.00;0.00;;;;;;;2.40;100.00;97985.97;10562540;28;20048;-81
2023/03/10 05:53:10;;;;;;;0.03;0.03;;;;;;;2.28;100.00;97985.81;10548583;28;20044;-82
2023/03/10 05:58:12;;;;;;;0.00;0.00;;;;;;;2.28;100.00;97994.31;10522968;28;20056;-81
2023/03/10 06:03:16;;;;;;;0.00;0.00;;;;;;;2.37;100.00;97985.94;10524807;28;20040;-82
2023/03/10 06:08:18;;;;;;;0.00;0.00;;;;;;;2.37;100.00;97991.00;10520409;28;20048;-82
2023/03/10 06:13:20;;;;;;;0.08;0.08;;;;;;;2.43;100.00;98001.25;10546820;28;20097;-82
2023/03/10 06:18:22;;;;;;;0.10;0.10;;;;;;;2.37;100.00;98001.19;10514459;28;20044;-79
2023/03/10 06:23:24;;;;;;;0.00;0.00;;;;;;;2.42;100.00;97997.00;10537109;28;20044;-80
2023/03/10 06:28:31;;;;;;;0.00;0.00;;;;;;;2.57;100.00;97993.78;10515110;28;20047;-80
2023/03/10 06:33:33;;;;;;;0.00;0.00;;;;;;;2.48;100.00;98009.78;10525214;28;20040;-79
2023/03/10 06:38:35;;;;;;;0.65;0.45;;;;;;;2.44;100.00;98013.13;10512006;28;20044;-79
2023/03/10 06:43:37;;;;;;;0.00;0.00;;;;;;;2.48;100.00;98017.41;10545935;28;20040;-80
2023/03/10 06:48:41;;;;;;;0.20;0.20;;;;;;;2.47;100.00;98015.72;10554785;28;20060;-78
2023/03/10 06:53:43;;;;;;;0.00;0.00;;;;;;;2.53;100.00;98020.03;10529818;28;20040;-79
2023/03/10 06:58:45;;;;;;;0.05;0.05;;;;;;;2.40;100.00;98025.75;10525909;28;20093;-79
2023/03/10 07:03:49;;;;;;;0.05;0.05;;;;;;;2.44;100.00;98042.78;10534464;28;20085;-79
2023/03/10 07:08:52;;;;;;;0.00;0.00;;;;;;;2.44;100.00;98042.78;10528871;28;20055;-79
2023/03/10 07:13:53;;;;;;;0.10;0.10;;;;;;;2.56;100.00;98049.69;10513849;28;20044;-83
2023/03/10 07:18:55;;;;;;;0.00;0.00;;;;;;;2.51;100.00;98039.47;10541150;28;20048;-82
2023/03/10 07:23:57;;;;;;;0.00;0.00;;;;;;;2.54;100.00;98035.28;10519500;28;20090;-83
2023/03/10 07:29:01;;;;;;;0.00;0.00;;;;;;;2.63;100.00;98041.31;10544001;28;20226;-82
2023/03/10 07:34:03;;;;;;;0.00;0.00;;;;;;;2.77;100.00;98039.78;10524125;28;20043;-83
2023/03/10 07:39:05;;;;;;;0.00;0.00;;;;;;;2.78;100.00;98041.47;10557086;28;20047;-83
2023/03/10 07:44:06;;;;;;;2.72;0.40;;;;;;;2.93;100.00;98034.84;10527453;28;20043;-83
2023/03/10 07:49:08;;;;;;;0.40;0.35;;;;;;;2.88;100.00;98036.47;10529997;28;20457;-82
2023/03/10 07:54:12;;;;;;;0.47;0.47;;;;;;;2.90;100.00;98039.91;10515871;28;20048;-82
2023/03/10 07:59:13;;;;;;;0.35;0.30;;;;;;;3.05;100.00;98037.50;10546477;28;20036;-82
2023/03/10 08:04:15;;;;;;;0.00;0.00;;;;;;;3.12;100.00;98051.16;10523579;28;20443;-83
2023/03/10 08:09:17;;;;;;;0.10;0.03;;;;;;;3.18;100.00;98049.50;10507459;28;20048;-82
2023/03/10 08:14:22;;;;;;;0.00;0.00;;;;;;;2.96;100.00;98060.31;10538990;28;20055;-82
2023/03/10 08:19:26;;;;;;;0.00;0.00;;;;;;;3.04;100.00;98055.31;10506763;28;20047;-82
2023/03/10 08:24:28;;;;;;;0.10;0.10;;;;;;;3.05;100.00;98055.31;10543101;28;20044;-83
2023/03/10 08:29:29;;;;;;;0.00;0.00;;;;;;;3.21;100.00;98051.22;10546880;28;20047;-83
2023/03/10 08:34:32;;;;;;;0.00;0.00;;;;;;;3.32;100.00;98056.41;10525250;28;20127;-84
2023/03/10 08:39:34;;;;;;;2.72;0.52;;;;;;;3.29;100.00;98058.94;10528919;28;20583;-82
2023/03/10 08:44:35;;;;;;;0.00;0.00;;;;;;;3.08;100.00;98067.22;10514493;28;20044;-82
2023/03/10 08:49:37;;;;;;;0.28;0.25;;;;;;;3.21;100.00;98075.81;10539633;28;20484;-84
2023/03/10 08:54:39;;;;;;;0.30;0.30;;;;;;;3.21;100.00;98069.03;10522030;28;20048;-83
2023/03/10 08:59:40;;;;;;;0.00;0.00;;;;;;;3.37;100.00;98079.34;10540133;28;20068;-83
2023/03/10 09:04:42;;;;;;;1.08;0.47;;;;;;;3.44;100.00;98087.06;10534088;28;20036;-83
2023/03/10 09:09:44;;;;;;;0.03;0.03;;;;;;;3.42;100.00;98081.09;10507107;28;20050;-83
2023/03/10 09:14:46;;;;;;;0.10;0.10;;;;;;;3.43;100.00;98080.28;10523966;28;20039;-84
2023/03/10 09:19:47;;;;;;;0.10;0.10;;;;;;;3.59;100.00;98085.50;10522157;28;20036;-82
2023/03/10 09:24:49;;;;;;;0.00;0.00;;;;;;;3.67;100.00;98086.44;10561745;28;20081;-82
2023/03/10 09:29:51;;;;;;;0.10;0.10;;;;;;;3.72;100.00;98082.22;10556763;28;20040;-82
2023/03/10 09:34:52;;;;;;;0.00;0.00;;;;;;;3.94;100.00;98087.47;10513990;28;20521;-82
2023/03/10 09:39:54;;;;;;;0.00;0.00;;;;;;;3.86;100.00;98089.09;10571960;28;20074;-83
2023/03/10 09:44:58;;;;;;;0.00;0.00;;;;;;;3.94;100.00;98090.88;10536016;28;20076;-84
2023/03/10 09:50:08;;;;;;;0.00;0.00;;;;;;;4.03;100.00;98095.19;10533297;28;20051;-83
2023/03/10 09:55:18;;;;;;;0.10;0.10;;;;;;;4.08;100.00;98090.97;10541387;28;20043;-84
2023/03/10 10:00:25;;;;;;;0.00;0.00;;;;;;;4.20;100.00;98092.75;10505057;28;20044;-82
2023/03/10 10:05:31;;;;;;;0.00;0.00;;;;;;;4.55;100.00;98091.22;10535943;28;20074;-82
2023/03/10 10:10:39;;;;;;;0.15;0.15;;;;;;;4.82;100.00;98089.63;10526775;28;20376;-82
2023/03/10 10:15:52;;;;;;;0.65;0.20;;;;;;;4.52;100.00;98101.41;10520340;28;20044;-82
2023/03/10 10:21:23;;;;;;;0.38;0.22;;;;;;;4.31;100.00;98108.09;10528960;28;20119;-82
2023/03/10 10:26:31;;;;;;;0.00;0.00;;;;;;;4.43;100.00;98112.41;10528706;28;20108;-84
2023/03/10 10:31:33;;;;;;;0.08;0.08;;;;;;;4.41;100.00;98114.97;10543866;28;20052;-83
2023/03/10 10:36:49;;;;;;;0.03;0.03;;;;;;;4.34;100.00;98125.97;10541279;28;20074;-82
2023/03/10 10:41:52;;;;;;;0.10;0.10;;;;;;;4.58;100.00;98121.81;10557482;28;20043;-82
2023/03/10 10:46:55;;;;;;;0.00;0.00;;;;;;;4.49;100.00;98126.91;10534169;28;20051;-82
2023/03/10 10:52:03;;;;;;;0.55;0.47;;;;;;;4.31;100.00;98123.38;10544126;28;20043;-81
2023/03/10 10:57:18;;;;;;;0.03;0.03;;;;;;;4.50;100.00;98108.22;10577165;27;20056;-84
2023/03/10 11:02:30;;;;;;;0.20;0.20;;;;;;;4.39;100.00;98110.69;10538641;28;20073;-82
2023/03/10 11:07:32;;;;;;;0.00;0.00;;;;;;;4.53;100.00;98103.09;10546601;28;20048;-83
2023/03/10 11:12:45;;;;;;;0.00;0.00;;;;;;;4.69;100.00;98097.25;10532599;28;20043;-84
2023/03/10 11:18:13;;;;;;;0.77;0.70;;;;;;;4.92;100.00;98086.28;10516616;28;20044;-80
2023/03/10 11:23:24;;;;;;;0.00;0.00;;;;;;;5.48;100.00;98058.28;10519131;28;20041;-80
2023/03/10 11:28:42;;;;;;;0.00;0.00;;;;;;;4.76;100.00;98086.22;10484303;28;20158;-79
2023/03/10 11:34:03;;;;;;;0.43;0.32;;;;;;;4.90;100.00;98072.66;10552652;28;20047;-80
2023/03/10 11:39:38;;;;;;;0.00;0.00;;;;;;;4.88;100.00;98084.53;10530751;28;20066;-80
2023/03/10 11:45:00;;;;;;;0.00;0.00;;;;;;;4.72;100.00;98086.19;10552864;28;20043;-80
2023/03/10 11:50:18;;;;;;;0.10;0.10;;;;;;;4.35;100.00;98104.72;10514588;28;20069;-81
2023/03/10 11:55:20;;;;;;;0.10;0.10;;;;;;;4.02;100.00;98079.91;10531507;28;20052;-80
2023/03/10 12:00:29;;;;;;;0.10;0.10;;;;;;;4.13;100.00;98062.97;10534741;28;20094;-80
2023/03/10 12:05:43;;;;;;;1.13;0.10;;;;;;;4.18;100.00;98065.53;10562788;28;20040;-80
2023/03/10 12:10:45;;;;;;;0.00;0.00;;;;;;;4.31;100.00;98051.19;10541513;28;20067;-79
2023/03/10 12:15:49;;;;;;;0.10;0.10;;;;;;;4.28;100.00;98041.81;10548569;28;20044;-82
2023/03/10 12:21:22;;;;;;;0.00;0.00;;;;;;;4.24;100.00;98035.88;10510023;28;20676;-82
2023/03/10 12:26:36;;;;;;;0.00;0.00;;;;;;;4.00;100.00;98066.28;10533958;28;20116;-83
2023/03/10 12:31:41;;;;;;;0.55;0.15;;;;;;;3.99;100.00;98067.13;10527773;28;20394;-83
2023/03/10 12:36:46;;;;;;;0.00;0.00;;;;;;;4.08;100.00;98070.56;10534132;28;20438;-82
2023/03/10 12:41:49;;;;;;;0.00;0.00;;;;;;;4.07;100.00;98065.47;10535791;28;20040;-82
2023/03/10 12:46:51;;;;;;;0.00;0.00;;;;;;;4.16;100.00;98059.56;10514262;28;20055;-84
2023/03/10 12:52:16;;;;;;;0.35;0.28;;;;;;;4.55;100.00;98047.88;10558084;28;20032;-82
2023/03/10 12:57:29;;;;;;;0.70;0.25;;;;;;;3.99;100.00;98055.22;10542741;28;20139;-82
2023/03/10 13:02:41;;;;;;;0.00;0.00;;;;;;;4.10;100.00;98030.69;10524330;28;20040;-82
2023/03/10 13:07:48;;;;;;;0.10;0.10;;;;;;;4.09;100.00;98026.41;10550036;28;20117;-81
2023/03/10 13:12:55;;;;;;;0.25;0.13;;;;;;;4.19;100.00;98022.22;10507052;28;20423;-81
2023/03/10 13:18:20;;;;;;;0.28;0.28;;;;;;;4.42;100.00;98001.09;10518396;28;20055;-82
2023/03/10 13:23:28;;;;;;;0.20;0.10;;;;;;;4.13;100.00;98000.09;10506603;28;20049;-82
2023/03/10 13:28:36;;;;;;;0.22;0.22;;;;;;;4.22;100.00;98013.72;10544046;28;20048;-82
2023/03/10 13:33:37;;;;;;;0.00;0.00;;;;;;;4.03;100.00;98022.97;10508941;28;20101;-81
2023/03/10 13:38:55;;;;;;;0.00;0.00;;;;;;;3.88;100.00;98021.19;10532909;28;20037;-81
2023/03/10 13:43:56;;;;;;;0.03;0.03;;;;;;;3.88;100.00;98023.75;10544121;28;20036;-81
2023/03/10 13:49:05;;;;;;;2.20;0.43;;;;;;;3.83;100.00;98035.63;10522512;28;20044;-81
2023/03/10 13:54:19;;;;;;;0.00;0.00;;;;;;;3.68;100.00;98043.97;10538690;28;20089;-81
2023/03/10 13:59:28;;;;;;;0.00;0.00;;;;;;;3.73;100.00;98040.63;10532734;28;20059;-83
2023/03/10 14:04:45;;;;;;;0.00;0.00;;;;;;;3.69;100.00;98051.63;10569808;27;20048;-83
2023/03/10 14:10:09;;;;;;;0.17;0.17;;;;;;;3.77;100.00;98057.63;10558127;28;20514;-81
2023/03/10 14:15:13;;;;;;;0.47;0.35;;;;;;;3.65;100.00;98062.63;10544554;28;20039;-82
2023/03/10 14:20:31;;;;;;;0.13;0.10;;;;;;;3.28;100.00;98080.13;10548597;28;20048;-82
2023/03/10 14:25:32;;;;;;;0.00;0.00;;;;;;;3.30;100.00;98083.56;10536785;28;20044;-82
2023/03/10 14:30:34;;;;;;;0.00;0.00;;;;;;;3.28;100.00;98091.16;10528830;28;20079;-81
2023/03/10 14:35:36;;;;;;;0.00;0.00;;;;;;;3.21;100.00;98083.44;10551611;28;20483;-82
2023/03/10 14:40:41;;;;;;;0.10;0.10;;;;;;;3.03;100.00;98100.22;10522806;28;20491;-82
2023/03/10 14:45:45;;;;;;;0.30;0.08;;;;;;;2.74;100.00;98121.09;10525554;28;20104;-83
2023/03/10 14:50:47;;;;;;;0.00;0.00;;;;;;;2.82;100.00;98127.13;10520345;28;20036;-82
2023/03/10 14:55:52;;;;;;;0.85;0.52;;;;;;;2.76;100.00;98137.22;10505096;28;20040;-82
2023/03/10 15:00:53;;;;;;;0.00;0.00;;;;;;;2.32;100.00;98160.34;10530998;28;20085;-82
2023/03/10 15:05:55;;;;;;;0.00;0.00;;;;;;;2.16;100.00;98177.88;10528810;28;20053;-83
2023/03/10 15:10:57;;;;;;;0.00;0.00;;;;;;;2.15;100.00;98183.78;10529964;28;20430;-84
2023/03/10 15:15:59;;;;;;;1.70;0.28;;;;;;;2.28;100.00;98195.00;10516064;28;20048;-83
2023/03/10 15:21:03;;;;;;;0.57;0.43;;;;;;;2.21;100.00;98203.38;10554593;28;20507;-82
2023/03/10 15:26:08;;;;;;;0.08;0.08;;;;;;;2.01;100.00;98247.06;10557116;28;20104;-83
2023/03/10 15:31:10;;;;;;;0.17;0.17;;;;;;;1.58;100.00;98295.38;10566469;28;20123;-82
2023/03/10 15:36:12;;;;;;;0.08;0.08;;;;;;;0.81;100.00;98357.09;10513212;28;20048;-82
2023/03/10 15:41:15;;;;;;;0.10;0.10;;;;;;;0.51;100.00;98388.47;10526201;28;20086;-84
2023/03/10 15:46:17;;;;;;;0.00;0.00;;;;;;;0.35;100.00;98399.00;10530802;28;20066;-83
2023/03/10 15:51:19;;;;;;;0.00;0.00;;;;;;;0.30;100.00;98419.13;10525085;28;20036;-84
2023/03/10 15:56:21;;;;;;;0.00;0.00;;;;;;;0.29;100.00;98442.78;10543974;28;20096;-84
2023/03/10 16:01:23;;;;;;;0.00;0.00;;;;;;;0.28;100.00;98467.22;10505803;28;20043;-83
2023/03/10 16:06:26;;;;;;;0.00;0.00;;;;;;;0.16;100.00;98471.97;10508846;28;20044;-83
2023/03/10 16:11:28;;;;;;;0.00;0.00;;;;;;;0.20;100.00;98499.06;10511328;28;20044;-83
2023/03/10 16:16:32;;;;;;;0.00;0.00;;;;;;;0.08;100.00;98544.31;10509975;28;20055;-83
2023/03/10 16:21:34;;;;;;;1.90;0.38;;;;;;;0.18;100.00;98548.84;10538749;28;20139;-82
2023/03/10 16:26:36;;;;;;;0.00;0.00;;;;;;;0.11;100.00;98575.63;10505321;28;20051;-82
2023/03/10 16:31:38;;;;;;;0.22;0.15;;;;;;;0.15;100.00;98605.28;10536151;28;20059;-81
2023/03/10 16:36:39;;;;;;;0.10;0.10;;;;;;;0.21;100.00;98627.41;10530086;28;20045;-82
2023/03/10 16:41:44;;;;;;;0.10;0.10;;;;;;;0.20;100.00;98666.22;10514531;28;20048;-80
2023/03/10 16:46:45;;;;;;;0.00;0.00;;;;;;;0.07;100.00;98710.56;10568118;27;20093;-80
2023/03/10 16:51:47;;;;;;;0.00;0.00;;;;;;;-0.03;100.00;98734.69;10520109;28;20051;-81
2023/03/10 16:56:51;;;;;;;0.00;0.00;;;;;;;0.06;100.00;98778.84;10526945;28;20065;-81
2023/03/10 17:01:53;;;;;;;0.28;0.20;;;;;;;-0.01;100.00;98809.03;10517938;28;20044;-82
2023/03/10 17:06:55;;;;;;;0.00;0.00;;;;;;;0.03;100.00;98837.84;10523955;28;20062;-82
2023/03/10 17:11:56;;;;;;;0.00;0.00;;;;;;;-0.02;100.00;98852.03;10552780;28;20086;-81
2023/03/10 17:16:58;;;;;;;0.00;0.00;;;;;;;-0.44;100.00;98888.47;10525462;28;20044;-81
2023/03/10 17:22:01;;;;;;;0.00;0.00;;;;;;;-0.11;100.00;98898.09;10532565;28;20044;-82
2023/03/10 17:27:06;;;;;;;0.00;0.00;;;;;;;-0.21;100.00;98903.66;10540678;28;20093;-83
2023/03/10 17:32:07;;;;;;;0.00;0.00;;;;;;;-0.21;100.00;98927.28;10526187;28;20434;-83
2023/03/10 17:37:09;;;;;;;0.00;0.00;;;;;;;-0.11;100.00;98928.47;10560599;28;20048;-82
2023/03/10 17:42:10;;;;;;;0.00;0.00;;;;;;;-0.19;100.00;98950.13;10518710;28;20184;-81
2023/03/10 17:47:12;;;;;;;0.10;0.10;;;;;;;-0.17;100.00;98968.75;10540386;28;20423;-82
2023/03/10 17:52:14;;;;;;;0.00;0.00;;;;;;;-0.09;100.00;99012.09;10550259;28;20055;-81
2023/03/10 17:57:15;;;;;;;0.00;0.00;;;;;;;-0.07;100.00;99041.72;10527140;28;20044;-81
2023/03/10 18:02:17;;;;;;;0.00;0.00;;;;;;;0.01;100.00;99074.06;10527116;28;20044;-82
2023/03/10 18:07:21;;;;;;;0.52;0.32;;;;;;;-0.04;100.00;99082.31;10531915;28;20074;-82
2023/03/10 18:12:23;;;;;;;0.00;0.00;;;;;;;0.15;100.00;99094.03;10556610;28;20479;-83
2023/03/10 18:17:25;;;;;;;0.00;0.00;;;;;;;-0.01;100.00;99122.13;10523840;28;20044;-82
2023/03/10 18:22:27;;;;;;;0.10;0.10;;;;;;;0.12;100.00;99141.16;10522539;28;20570;-82
2023/03/10 18:27:34;;;;;;;0.38;0.38;;;;;;;0.09;100.00;99153.72;10556832;28;20043;-81
2023/03/10 18:32:36;;;;;;;0.20;0.20;;;;;;;0.16;100.00;99181.03;10547186;28;20518;-82
2023/03/10 18:37:37;;;;;;;0.00;0.00;;;;;;;0.20;100.00;99218.31;10532486;28;20056;-82
2023/03/10 18:42:39;;;;;;;0.28;0.20;;;;;;;0.21;100.00;99230.19;10529920;28;20097;-81
2023/03/10 18:47:41;;;;;;;0.00;0.00;;;;;;;0.21;100.00;99229.31;10530768;28;20051;-81
2023/03/10 18:52:44;;;;;;;0.00;0.00;;;;;;;0.09;100.00;99245.72;10529301;28;20065;-81
2023/03/10 18:57:46;;;;;;;0.00;0.00;;;;;;;0.26;100.00;99265.81;10524720;28;20044;-81
2023/03/10 19:02:51;;;;;;;0.00;0.00;;;;;;;0.15;100.00;99289.03;10526522;28;20043;-81
2023/03/10 19:07:52;;;;;;;0.08;0.08;;;;;;;0.27;100.00;99308.09;10537812;28;20562;-82
2023/03/10 19:12:55;;;;;;;0.00;0.00;;;;;;;0.31;100.00;99317.53;10519645;28;20036;-81
2023/03/10 19:17:57;;;;;;;0.00;0.00;;;;;;;0.33;100.00;99336.22;10536918;28;20044;-80
2023/03/10 19:22:58;;;;;;;0.00;0.00;;;;;;;0.43;100.00;99337.44;10532153;28;20174;-81
2023/03/10 19:28:00;;;;;;;0.00;0.00;;;;;;;0.42;100.00;99355.97;10533859;28;20071;-80
2023/03/10 19:33:03;;;;;;;0.00;0.00;;;;;;;0.33;100.00;99383.50;10525934;28;20032;-80
2023/03/10 19:38:04;;;;;;;0.05;0.05;;;;;;;0.31;100.00;99394.41;10515642;28;20051;-81
2023/03/10 19:43:06;;;;;;;0.00;0.00;;;;;;;0.29;100.00;99423.88;10538047;28;20033;-81
2023/03/10 19:48:08;;;;;;;0.08;0.08;;;;;;;0.54;100.00;99427.47;10532316;28;20120;-80
2023/03/10 19:53:10;;;;;;;0.00;0.00;;;;;;;0.54;100.00;99446.84;10510614;28;20044;-82
2023/03/10 19:58:11;;;;;;;0.00;0.00;;;;;;;0.57;100.00;99465.59;10545015;28;20161;-81
2023/03/10 20:03:16;;;;;;;0.00;0.00;;;;;;;0.54;100.00;99483.22;10530668;28;20059;-81
2023/03/10 20:08:21;;;;;;;0.00;0.00;;;;;;;0.52;100.00;99487.34;10524709;28;20048;-81
2023/03/10 20:13:22;;;;;;;0.00;0.00;;;;;;;0.40;100.00;99499.50;10539461;28;20052;-81
2023/03/10 20:18:24;;;;;;;0.00;0.00;;;;;;;0.51;100.00;99505.88;10513932;28;20128;-81
2023/03/10 20:23:26;;;;;;;0.00;0.00;;;;;;;0.45;100.00;99518.28;10545687;28;20106;-80
2023/03/10 20:28:28;;;;;;;0.35;0.10;;;;;;;0.43;100.00;99535.97;10505910;28;20074;-82
2023/03/10 20:33:30;;;;;;;0.22;0.20;;;;;;;0.56;100.00;99537.34;10537061;27;20074;-81
2023/03/10 20:38:32;;;;;;;0.00;0.00;;;;;;;0.65;100.00;99552.13;10521468;28;20125;-79
2023/03/10 20:43:34;;;;;;;0.00;0.00;;;;;;;0.69;100.00;99555.66;10528000;28;20048;-79
2023/03/10 20:48:36;;;;;;;0.00;0.00;;;;;;;0.62;100.00;99573.13;10516712;28;20108;-80
2023/03/10 20:53:38;;;;;;;0.00;0.00;;;;;;;0.62;100.00;99585.81;10547531;28;20048;-79
2023/03/10 20:58:40;;;;;;;0.00;0.00;;;;;;;0.63;100.00;99602.72;10564935;27;20483;-81
2023/03/10 21:03:41;;;;;;;0.05;0.05;;;;;;;0.67;100.00;99620.63;10512009;28;20044;-81
2023/03/10 21:08:43;;;;;;;0.47;0.47;;;;;;;0.65;100.00;99623.09;10525181;28;20102;-79
2023/03/10 21:13:45;;;;;;;0.00;0.00;;;;;;;0.63;100.00;99635.69;10500626;28;20491;-79
2023/03/10 21:18:46;;;;;;;0.47;0.32;;;;;;;0.62;100.00;99644.13;10520591;28;20092;-78
2023/03/10 21:23:48;;;;;;;0.10;0.10;;;;;;;0.56;100.00;99659.00;10518737;28;20626;-81
2023/03/10 21:28:50;;;;;;;0.00;0.00;;;;;;;0.58;100.00;99662.50;10530566;28;20115;-81
2023/03/10 21:33:51;;;;;;;0.00;0.00;;;;;;;0.43;100.00;99672.81;10535467;28;20491;-81
2023/03/10 21:38:53;;;;;;;0.00;0.00;;;;;;;0.50;100.00;99673.94;10515232;28;20132;-81
2023/03/10 21:43:57;;;;;;;0.00;0.00;;;;;;;0.49;100.00;99676.41;10525914;28;20048;-81
2023/03/10 21:48:59;;;;;;;0.00;0.00;;;;;;;0.50;100.00;99694.22;10516533;28;20039;-83
2023/03/10 21:54:02;;;;;;;0.00;0.00;;;;;;;0.52;100.00;99707.84;10521256;28;20073;-87
2023/03/10 21:59:03;;;;;;;0.30;0.30;;;;;;;0.46;100.00;99710.09;10504441;28;20063;-86
2023/03/10 22:04:05;;;;;;;0.00;0.00;;;;;;;0.57;100.00;99721.59;10525021;28;20036;-85
2023/03/10 22:09:07;;;;;;;0.00;0.00;;;;;;;0.41;100.00;99740.28;10496916;28;20097;-84
2023/03/10 22:14:09;;;;;;;0.00;0.00;;;;;;;0.56;100.00;99760.41;10518258;28;20047;-84
2023/03/10 22:19:11;;;;;;;0.00;0.00;;;;;;;0.62;100.00;99758.19;10528505;28;20043;-85
2023/03/10 22:24:13;;;;;;;0.00;0.00;;;;;;;0.50;100.00;99790.53;10528777;28;20381;-85
2023/03/10 22:29:14;;;;;;;0.00;0.00;;;;;;;0.46;100.00;99791.19;10508519;28;20044;-85
2023/03/10 22:34:16;;;;;;;0.08;0.08;;;;;;;0.43;100.00;99812.19;10541757;28;20044;-85
2023/03/10 22:39:18;;;;;;;0.05;0.05;;;;;;;0.52;100.00;99824.41;10516441;28;20055;-85
2023/03/10 22:44:20;;;;;;;0.00;0.00;;;;;;;0.62;100.00;99836.75;10540793;28;20105;-83
2023/03/10 22:49:21;;;;;;;0.00;0.00;;;;;;;0.60;100.00;99848.47;10535568;28;20384;-84
2023/03/10 22:54:23;;;;;;;0.00;0.00;;;;;;;0.60;100.00;99857.72;10521253;28;20066;-84
2023/03/10 22:59:25;;;;;;;0.00;0.00;;;;;;;0.43;100.00;99875.53;10529026;28;20414;-84
2023/03/10 23:04:27;;;;;;;0.00;0.00;;;;;;;0.29;100.00;99882.44;10524287;28;20085;-85
2023/03/10 23:09:29;;;;;;;0.00;0.00;;;;;;;0.39;100.00;99885.44;10539131;28;20052;-84
2023/03/10 23:14:30;;;;;;;0.00;0.00;;;;;;;0.44;100.00;99894.13;10521599;28;20044;-85
2023/03/10 23:19:33;;;;;;;0.00;0.00;;;;;;;0.53;100.00;99907.28;10528737;28;20128;-83
2023/03/10 23:24:35;;;;;;;0.00;0.00;;;;;;;0.53;100.00;99902.19;10545852;28;20044;-83
2023/03/10 23:29:36;;;;;;;0.05;0.05;;;;;;;0.49;100.00;99912.97;10543111;28;20443;-84
2023/03/10 23:34:38;;;;;;;0.00;0.00;;;;;;;0.37;100.00;99919.94;10567747;27;20044;-83